sensor_id;sensor_type;location;lat;lon;timestamp;P1;durP1;ratioP1;P2;durP2;ratioP2
37299;SDS011;23184;51.902;12.836;2024-02-21T00:00:36;20.30;;;4.80;;
37299;SDS011;23184;51.902;12.836;2024-02-21T00:03:03;20.30;;;4.25;;
37299;SDS011;23184;51.902;12.836;2024-02-21T00:05:29;16.92;;;4.05;;
37299;SDS011;23184;51.902;12.836;2024-02-21T00:07:55;16.52;;;3.80;;
37299;SDS011;23184;51.902;12.836;2024-02-21T00:10:21;17.60;;;4.47;;
37299;SDS011;23184;51.902;12.836;2024-02-21T00:12:46;17.50;;;4.65;;
37299;SDS011;23184;51.902;12.836;2024-02-21T00:15:12;21.00;;;4.22;;
37299;SDS011;23184;51.902;12.836;2024-02-21T00:17:37;26.98;;;4.30;;
37299;SDS011;23184;51.902;12.836;2024-02-21T00:20:03;17.95;;;4.30;;
37299;SDS011;23184;51.902;12.836;2024-02-21T00:22:29;16.17;;;3.75;;
37299;SDS011;23184;51.902;12.836;2024-02-21T00:24:56;14.55;;;4.50;;
37299;SDS011;23184;51.902;12.836;2024-02-21T00:27:23;16.30;;;3.85;;
37299;SDS011;23184;51.902;12.836;2024-02-21T00:29:48;19.52;;;4.38;;
37299;SDS011;23184;51.902;12.836;2024-02-21T00:32:14;16.35;;;4.25;;
37299;SDS011;23184;51.902;12.836;2024-02-21T00:34:39;15.05;;;3.80;;
37299;SDS011;23184;51.902;12.836;2024-02-21T00:37:05;18.80;;;4.30;;
37299;SDS011;23184;51.902;12.836;2024-02-21T00:39:30;18.48;;;4.93;;
37299;SDS011;23184;51.902;12.836;2024-02-21T00:41:56;17.90;;;5.03;;
37299;SDS011;23184;51.902;12.836;2024-02-21T00:44:21;18.83;;;3.83;;
37299;SDS011;23184;51.902;12.836;2024-02-21T00:46:47;21.08;;;6.05;;
37299;SDS011;23184;51.902;12.836;2024-02-21T00:49:12;23.75;;;5.00;;
37299;SDS011;23184;51.902;12.836;2024-02-21T00:51:38;23.45;;;4.50;;
37299;SDS011;23184;51.902;12.836;2024-02-21T00:54:03;19.42;;;4.20;;
37299;SDS011;23184;51.902;12.836;2024-02-21T00:56:29;14.15;;;4.03;;
37299;SDS011;23184;51.902;12.836;2024-02-21T00:58:55;20.45;;;4.18;;
37299;SDS011;23184;51.902;12.836;2024-02-21T01:01:22;20.50;;;4.10;;
37299;SDS011;23184;51.902;12.836;2024-02-21T01:03:49;25.08;;;4.45;;
37299;SDS011;23184;51.902;12.836;2024-02-21T01:06:14;22.15;;;4.32;;
37299;SDS011;23184;51.902;12.836;2024-02-21T01:08:40;17.30;;;4.00;;
37299;SDS011;23184;51.902;12.836;2024-02-21T01:11:05;16.17;;;3.90;;
37299;SDS011;23184;51.902;12.836;2024-02-21T01:13:31;19.90;;;4.70;;
37299;SDS011;23184;51.902;12.836;2024-02-21T01:15:56;18.85;;;4.55;;
37299;SDS011;23184;51.902;12.836;2024-02-21T01:18:22;15.50;;;3.95;;
37299;SDS011;23184;51.902;12.836;2024-02-21T01:20:47;22.23;;;4.72;;
37299;SDS011;23184;51.902;12.836;2024-02-21T01:23:13;24.67;;;5.13;;
37299;SDS011;23184;51.902;12.836;2024-02-21T01:25:38;17.63;;;4.95;;
37299;SDS011;23184;51.902;12.836;2024-02-21T01:28:04;25.42;;;4.70;;
37299;SDS011;23184;51.902;12.836;2024-02-21T01:30:29;17.40;;;5.57;;
37299;SDS011;23184;51.902;12.836;2024-02-21T01:32:55;22.50;;;5.40;;
37299;SDS011;23184;51.902;12.836;2024-02-21T01:35:20;23.25;;;5.85;;
37299;SDS011;23184;51.902;12.836;2024-02-21T01:37:46;17.90;;;4.90;;
37299;SDS011;23184;51.902;12.836;2024-02-21T01:40:11;20.08;;;5.22;;
37299;SDS011;23184;51.902;12.836;2024-02-21T01:42:40;20.85;;;5.40;;
37299;SDS011;23184;51.902;12.836;2024-02-21T01:45:06;19.33;;;5.22;;
37299;SDS011;23184;51.902;12.836;2024-02-21T01:47:31;21.60;;;4.80;;
37299;SDS011;23184;51.902;12.836;2024-02-21T01:49:57;27.65;;;5.80;;
37299;SDS011;23184;51.902;12.836;2024-02-21T01:52:23;22.77;;;6.28;;
37299;SDS011;23184;51.902;12.836;2024-02-21T01:54:48;18.23;;;5.40;;
37299;SDS011;23184;51.902;12.836;2024-02-21T01:57:14;23.95;;;5.35;;
37299;SDS011;23184;51.902;12.836;2024-02-21T01:59:40;25.23;;;5.40;;
37299;SDS011;23184;51.902;12.836;2024-02-21T02:02:05;21.35;;;5.35;;
37299;SDS011;23184;51.902;12.836;2024-02-21T02:04:31;22.48;;;5.78;;
37299;SDS011;23184;51.902;12.836;2024-02-21T02:06:59;21.02;;;4.90;;
37299;SDS011;23184;51.902;12.836;2024-02-21T02:09:27;21.60;;;5.80;;
37299;SDS011;23184;51.902;12.836;2024-02-21T02:11:53;29.02;;;6.15;;
37299;SDS011;23184;51.902;12.836;2024-02-21T02:14:18;23.75;;;6.03;;
37299;SDS011;23184;51.902;12.836;2024-02-21T02:16:46;19.73;;;5.95;;
37299;SDS011;23184;51.902;12.836;2024-02-21T02:19:12;22.48;;;5.22;;
37299;SDS011;23184;51.902;12.836;2024-02-21T02:21:39;15.85;;;4.75;;
37299;SDS011;23184;51.902;12.836;2024-02-21T02:24:07;15.45;;;5.50;;
37299;SDS011;23184;51.902;12.836;2024-02-21T02:26:32;20.38;;;5.07;;
37299;SDS011;23184;51.902;12.836;2024-02-21T02:28:58;22.38;;;4.72;;
37299;SDS011;23184;51.902;12.836;2024-02-21T02:31:26;20.67;;;4.97;;
37299;SDS011;23184;51.902;12.836;2024-02-21T02:33:51;15.02;;;5.20;;
37299;SDS011;23184;51.902;12.836;2024-02-21T02:36:16;19.42;;;5.82;;
37299;SDS011;23184;51.902;12.836;2024-02-21T02:38:42;17.25;;;5.05;;
37299;SDS011;23184;51.902;12.836;2024-02-21T02:41:08;22.65;;;5.45;;
37299;SDS011;23184;51.902;12.836;2024-02-21T02:43:33;16.65;;;4.70;;
37299;SDS011;23184;51.902;12.836;2024-02-21T02:45:59;18.10;;;5.50;;
37299;SDS011;23184;51.902;12.836;2024-02-21T02:48:24;26.70;;;5.70;;
37299;SDS011;23184;51.902;12.836;2024-02-21T02:50:50;22.90;;;5.53;;
37299;SDS011;23184;51.902;12.836;2024-02-21T02:53:15;21.05;;;4.85;;
37299;SDS011;23184;51.902;12.836;2024-02-21T02:55:41;19.30;;;5.30;;
37299;SDS011;23184;51.902;12.836;2024-02-21T02:58:07;16.25;;;4.20;;
37299;SDS011;23184;51.902;12.836;2024-02-21T03:00:33;19.27;;;4.70;;
37299;SDS011;23184;51.902;12.836;2024-02-21T03:03:01;28.08;;;5.38;;
37299;SDS011;23184;51.902;12.836;2024-02-21T03:05:28;26.05;;;5.18;;
37299;SDS011;23184;51.902;12.836;2024-02-21T03:07:54;21.42;;;5.22;;
37299;SDS011;23184;51.902;12.836;2024-02-21T03:10:20;17.17;;;5.07;;
37299;SDS011;23184;51.902;12.836;2024-02-21T03:12:46;18.30;;;4.68;;
37299;SDS011;23184;51.902;12.836;2024-02-21T03:15:12;18.30;;;4.47;;
37299;SDS011;23184;51.902;12.836;2024-02-21T03:17:38;16.35;;;5.13;;
37299;SDS011;23184;51.902;12.836;2024-02-21T03:20:04;20.50;;;4.90;;
37299;SDS011;23184;51.902;12.836;2024-02-21T03:22:31;13.13;;;4.72;;
37299;SDS011;23184;51.902;12.836;2024-02-21T03:24:57;19.60;;;5.18;;
37299;SDS011;23184;51.902;12.836;2024-02-21T03:27:23;24.95;;;4.78;;
37299;SDS011;23184;51.902;12.836;2024-02-21T03:29:48;19.45;;;5.07;;
37299;SDS011;23184;51.902;12.836;2024-02-21T03:32:14;24.27;;;6.30;;
37299;SDS011;23184;51.902;12.836;2024-02-21T03:34:39;23.15;;;6.30;;
37299;SDS011;23184;51.902;12.836;2024-02-21T03:37:05;16.73;;;5.97;;
37299;SDS011;23184;51.902;12.836;2024-02-21T03:39:31;16.40;;;5.22;;
37299;SDS011;23184;51.902;12.836;2024-02-21T03:41:57;22.95;;;5.88;;
37299;SDS011;23184;51.902;12.836;2024-02-21T03:44:23;25.65;;;6.18;;
37299;SDS011;23184;51.902;12.836;2024-02-21T03:46:48;22.25;;;5.80;;
37299;SDS011;23184;51.902;12.836;2024-02-21T03:49:14;20.00;;;5.60;;
37299;SDS011;23184;51.902;12.836;2024-02-21T03:51:39;17.30;;;6.07;;
37299;SDS011;23184;51.902;12.836;2024-02-21T03:54:05;17.55;;;5.68;;
37299;SDS011;23184;51.902;12.836;2024-02-21T03:56:30;22.80;;;5.68;;
37299;SDS011;23184;51.902;12.836;2024-02-21T03:58:56;28.33;;;6.28;;
37299;SDS011;23184;51.902;12.836;2024-02-21T04:01:21;16.27;;;5.57;;
37299;SDS011;23184;51.902;12.836;2024-02-21T04:03:47;24.60;;;6.63;;
37299;SDS011;23184;51.902;12.836;2024-02-21T04:06:12;23.40;;;6.55;;
37299;SDS011;23184;51.902;12.836;2024-02-21T04:08:38;25.63;;;6.18;;
37299;SDS011;23184;51.902;12.836;2024-02-21T04:11:04;34.45;;;6.93;;
37299;SDS011;23184;51.902;12.836;2024-02-21T04:13:29;22.05;;;7.07;;
37299;SDS011;23184;51.902;12.836;2024-02-21T04:15:55;22.38;;;6.00;;
37299;SDS011;23184;51.902;12.836;2024-02-21T04:18:20;20.63;;;6.38;;
37299;SDS011;23184;51.902;12.836;2024-02-21T04:20:46;22.15;;;7.55;;
37299;SDS011;23184;51.902;12.836;2024-02-21T04:23:12;23.38;;;6.65;;
37299;SDS011;23184;51.902;12.836;2024-02-21T04:25:37;27.73;;;6.82;;
37299;SDS011;23184;51.902;12.836;2024-02-21T04:28:03;18.48;;;7.00;;
37299;SDS011;23184;51.902;12.836;2024-02-21T04:30:29;26.95;;;7.18;;
37299;SDS011;23184;51.902;12.836;2024-02-21T04:32:54;27.63;;;8.18;;
37299;SDS011;23184;51.902;12.836;2024-02-21T04:35:20;26.35;;;7.78;;
37299;SDS011;23184;51.902;12.836;2024-02-21T04:37:45;30.65;;;7.60;;
37299;SDS011;23184;51.902;12.836;2024-02-21T04:40:11;21.70;;;8.15;;
37299;SDS011;23184;51.902;12.836;2024-02-21T04:42:36;20.27;;;7.70;;
37299;SDS011;23184;51.902;12.836;2024-02-21T04:45:02;28.23;;;7.43;;
37299;SDS011;23184;51.902;12.836;2024-02-21T04:47:28;28.88;;;7.88;;
37299;SDS011;23184;51.902;12.836;2024-02-21T04:49:53;24.95;;;7.78;;
37299;SDS011;23184;51.902;12.836;2024-02-21T04:52:19;23.63;;;7.05;;
37299;SDS011;23184;51.902;12.836;2024-02-21T04:54:44;30.17;;;7.75;;
37299;SDS011;23184;51.902;12.836;2024-02-21T04:57:10;22.20;;;6.50;;
37299;SDS011;23184;51.902;12.836;2024-02-21T04:59:36;23.35;;;6.93;;
37299;SDS011;23184;51.902;12.836;2024-02-21T05:02:02;18.25;;;6.88;;
37299;SDS011;23184;51.902;12.836;2024-02-21T05:04:27;26.58;;;7.57;;
37299;SDS011;23184;51.902;12.836;2024-02-21T05:06:53;31.33;;;8.65;;
37299;SDS011;23184;51.902;12.836;2024-02-21T05:09:19;25.10;;;7.43;;
37299;SDS011;23184;51.902;12.836;2024-02-21T05:11:45;28.88;;;8.30;;
37299;SDS011;23184;51.902;12.836;2024-02-21T05:14:10;20.10;;;7.47;;
37299;SDS011;23184;51.902;12.836;2024-02-21T05:16:36;32.03;;;7.93;;
37299;SDS011;23184;51.902;12.836;2024-02-21T05:19:04;22.67;;;7.55;;
37299;SDS011;23184;51.902;12.836;2024-02-21T05:21:29;28.60;;;7.30;;
37299;SDS011;23184;51.902;12.836;2024-02-21T05:23:54;22.35;;;6.47;;
37299;SDS011;23184;51.902;12.836;2024-02-21T05:26:28;25.52;;;6.63;;
37299;SDS011;23184;51.902;12.836;2024-02-21T05:28:53;29.92;;;6.50;;
37299;SDS011;23184;51.902;12.836;2024-02-21T05:31:19;28.88;;;6.95;;
37299;SDS011;23184;51.902;12.836;2024-02-21T05:33:46;24.52;;;7.10;;
37299;SDS011;23184;51.902;12.836;2024-02-21T05:36:12;30.35;;;6.88;;
37299;SDS011;23184;51.902;12.836;2024-02-21T05:38:38;23.73;;;6.53;;
37299;SDS011;23184;51.902;12.836;2024-02-21T05:41:03;23.52;;;6.32;;
37299;SDS011;23184;51.902;12.836;2024-02-21T05:43:29;22.77;;;6.35;;
37299;SDS011;23184;51.902;12.836;2024-02-21T05:45:54;27.23;;;5.93;;
37299;SDS011;23184;51.902;12.836;2024-02-21T05:48:20;19.05;;;5.93;;
37299;SDS011;23184;51.902;12.836;2024-02-21T05:50:49;25.35;;;7.03;;
37299;SDS011;23184;51.902;12.836;2024-02-21T05:53:15;25.38;;;7.07;;
37299;SDS011;23184;51.902;12.836;2024-02-21T05:55:40;18.15;;;5.70;;
37299;SDS011;23184;51.902;12.836;2024-02-21T05:58:06;20.60;;;5.68;;
37299;SDS011;23184;51.902;12.836;2024-02-21T06:00:32;24.70;;;6.18;;
37299;SDS011;23184;51.902;12.836;2024-02-21T06:02:58;18.73;;;5.85;;
37299;SDS011;23184;51.902;12.836;2024-02-21T06:05:24;26.23;;;6.32;;
37299;SDS011;23184;51.902;12.836;2024-02-21T06:07:49;20.38;;;6.75;;
37299;SDS011;23184;51.902;12.836;2024-02-21T06:10:15;21.60;;;6.18;;
37299;SDS011;23184;51.902;12.836;2024-02-21T06:12:41;16.60;;;5.28;;
37299;SDS011;23184;51.902;12.836;2024-02-21T06:15:06;28.35;;;6.22;;
37299;SDS011;23184;51.902;12.836;2024-02-21T06:17:32;14.80;;;5.20;;
37299;SDS011;23184;51.902;12.836;2024-02-21T06:19:58;18.02;;;5.55;;
37299;SDS011;23184;51.902;12.836;2024-02-21T06:22:23;23.83;;;6.40;;
37299;SDS011;23184;51.902;12.836;2024-02-21T06:24:49;24.05;;;5.82;;
37299;SDS011;23184;51.902;12.836;2024-02-21T06:27:15;20.70;;;6.20;;
37299;SDS011;23184;51.902;12.836;2024-02-21T06:29:41;20.42;;;6.95;;
37299;SDS011;23184;51.902;12.836;2024-02-21T06:32:07;29.23;;;6.82;;
37299;SDS011;23184;51.902;12.836;2024-02-21T06:34:32;20.40;;;6.00;;
37299;SDS011;23184;51.902;12.836;2024-02-21T06:36:58;20.55;;;6.45;;
37299;SDS011;23184;51.902;12.836;2024-02-21T06:39:24;30.65;;;6.88;;
37299;SDS011;23184;51.902;12.836;2024-02-21T06:41:49;23.13;;;7.38;;
37299;SDS011;23184;51.902;12.836;2024-02-21T06:44:16;28.13;;;6.30;;
37299;SDS011;23184;51.902;12.836;2024-02-21T06:46:42;17.23;;;6.20;;
37299;SDS011;23184;51.902;12.836;2024-02-21T06:49:07;20.27;;;6.10;;
37299;SDS011;23184;51.902;12.836;2024-02-21T06:51:33;21.67;;;6.45;;
37299;SDS011;23184;51.902;12.836;2024-02-21T06:53:59;30.23;;;7.35;;
37299;SDS011;23184;51.902;12.836;2024-02-21T06:56:25;19.20;;;6.65;;
37299;SDS011;23184;51.902;12.836;2024-02-21T06:58:56;20.98;;;5.97;;
37299;SDS011;23184;51.902;12.836;2024-02-21T07:01:22;18.40;;;6.47;;
37299;SDS011;23184;51.902;12.836;2024-02-21T07:03:48;17.95;;;6.18;;
37299;SDS011;23184;51.902;12.836;2024-02-21T07:06:14;25.15;;;6.97;;
37299;SDS011;23184;51.902;12.836;2024-02-21T07:08:40;20.30;;;6.53;;
37299;SDS011;23184;51.902;12.836;2024-02-21T07:11:05;19.95;;;7.00;;
37299;SDS011;23184;51.902;12.836;2024-02-21T07:13:31;18.77;;;6.28;;
37299;SDS011;23184;51.902;12.836;2024-02-21T07:15:57;24.25;;;7.75;;
37299;SDS011;23184;51.902;12.836;2024-02-21T07:18:23;25.83;;;7.18;;
37299;SDS011;23184;51.902;12.836;2024-02-21T07:20:50;20.33;;;7.90;;
37299;SDS011;23184;51.902;12.836;2024-02-21T07:23:16;22.83;;;7.53;;
37299;SDS011;23184;51.902;12.836;2024-02-21T07:25:42;22.63;;;6.43;;
37299;SDS011;23184;51.902;12.836;2024-02-21T07:28:07;20.20;;;7.60;;
37299;SDS011;23184;51.902;12.836;2024-02-21T07:30:33;23.40;;;8.15;;
37299;SDS011;23184;51.902;12.836;2024-02-21T07:32:58;18.83;;;6.90;;
37299;SDS011;23184;51.902;12.836;2024-02-21T07:35:24;22.65;;;7.70;;
37299;SDS011;23184;51.902;12.836;2024-02-21T07:37:50;20.98;;;7.25;;
37299;SDS011;23184;51.902;12.836;2024-02-21T07:40:16;17.05;;;5.55;;
37299;SDS011;23184;51.902;12.836;2024-02-21T07:42:42;23.20;;;8.40;;
37299;SDS011;23184;51.902;12.836;2024-02-21T07:45:08;20.10;;;7.18;;
37299;SDS011;23184;51.902;12.836;2024-02-21T07:47:35;22.17;;;7.55;;
37299;SDS011;23184;51.902;12.836;2024-02-21T07:50:01;25.33;;;7.68;;
37299;SDS011;23184;51.902;12.836;2024-02-21T07:52:27;22.48;;;7.45;;
37299;SDS011;23184;51.902;12.836;2024-02-21T07:54:53;23.85;;;7.75;;
37299;SDS011;23184;51.902;12.836;2024-02-21T07:57:19;23.00;;;8.00;;
37299;SDS011;23184;51.902;12.836;2024-02-21T07:59:44;22.40;;;7.00;;
37299;SDS011;23184;51.902;12.836;2024-02-21T08:02:12;22.60;;;6.80;;
37299;SDS011;23184;51.902;12.836;2024-02-21T08:04:38;26.33;;;8.25;;
37299;SDS011;23184;51.902;12.836;2024-02-21T08:07:04;26.88;;;8.32;;
37299;SDS011;23184;51.902;12.836;2024-02-21T08:09:29;20.77;;;7.57;;
37299;SDS011;23184;51.902;12.836;2024-02-21T08:11:55;24.65;;;8.20;;
37299;SDS011;23184;51.902;12.836;2024-02-21T08:14:21;27.52;;;7.72;;
37299;SDS011;23184;51.902;12.836;2024-02-21T08:16:47;21.73;;;7.65;;
37299;SDS011;23184;51.902;12.836;2024-02-21T08:19:12;30.77;;;8.30;;
37299;SDS011;23184;51.902;12.836;2024-02-21T08:21:38;18.90;;;6.22;;
37299;SDS011;23184;51.902;12.836;2024-02-21T08:24:04;25.15;;;8.15;;
37299;SDS011;23184;51.902;12.836;2024-02-21T08:26:29;23.77;;;7.85;;
37299;SDS011;23184;51.902;12.836;2024-02-21T08:28:56;24.63;;;8.43;;
37299;SDS011;23184;51.902;12.836;2024-02-21T08:31:24;24.63;;;7.82;;
37299;SDS011;23184;51.902;12.836;2024-02-21T08:33:56;23.88;;;7.38;;
37299;SDS011;23184;51.902;12.836;2024-02-21T08:36:30;29.35;;;9.02;;
37299;SDS011;23184;51.902;12.836;2024-02-21T08:38:57;22.63;;;8.23;;
37299;SDS011;23184;51.902;12.836;2024-02-21T08:41:23;23.25;;;7.60;;
37299;SDS011;23184;51.902;12.836;2024-02-21T08:43:50;23.60;;;7.43;;
37299;SDS011;23184;51.902;12.836;2024-02-21T08:46:21;20.67;;;8.07;;
37299;SDS011;23184;51.902;12.836;2024-02-21T08:48:49;23.70;;;7.93;;
37299;SDS011;23184;51.902;12.836;2024-02-21T08:51:14;25.92;;;6.82;;
37299;SDS011;23184;51.902;12.836;2024-02-21T08:53:40;29.05;;;7.63;;
37299;SDS011;23184;51.902;12.836;2024-02-21T08:56:06;18.92;;;5.78;;
37299;SDS011;23184;51.902;12.836;2024-02-21T08:58:35;18.23;;;8.00;;
37299;SDS011;23184;51.902;12.836;2024-02-21T09:01:02;21.23;;;7.00;;
37299;SDS011;23184;51.902;12.836;2024-02-21T09:03:30;19.13;;;6.88;;
37299;SDS011;23184;51.902;12.836;2024-02-21T09:05:56;18.45;;;6.00;;
37299;SDS011;23184;51.902;12.836;2024-02-21T09:08:22;17.75;;;6.57;;
37299;SDS011;23184;51.902;12.836;2024-02-21T09:10:49;17.63;;;7.60;;
37299;SDS011;23184;51.902;12.836;2024-02-21T09:13:14;15.10;;;7.00;;
37299;SDS011;23184;51.902;12.836;2024-02-21T09:15:40;19.85;;;6.00;;
37299;SDS011;23184;51.902;12.836;2024-02-21T09:18:05;19.13;;;7.32;;
37299;SDS011;23184;51.902;12.836;2024-02-21T09:20:31;19.35;;;7.18;;
37299;SDS011;23184;51.902;12.836;2024-02-21T09:22:57;23.55;;;7.07;;
37299;SDS011;23184;51.902;12.836;2024-02-21T09:25:22;21.40;;;7.40;;
37299;SDS011;23184;51.902;12.836;2024-02-21T09:27:48;16.38;;;6.72;;
37299;SDS011;23184;51.902;12.836;2024-02-21T09:30:13;16.20;;;6.72;;
37299;SDS011;23184;51.902;12.836;2024-02-21T09:32:39;19.60;;;6.78;;
37299;SDS011;23184;51.902;12.836;2024-02-21T09:35:05;26.42;;;8.40;;
37299;SDS011;23184;51.902;12.836;2024-02-21T09:37:31;19.90;;;7.40;;
37299;SDS011;23184;51.902;12.836;2024-02-21T09:39:56;21.80;;;7.97;;
37299;SDS011;23184;51.902;12.836;2024-02-21T09:42:22;19.85;;;7.53;;
37299;SDS011;23184;51.902;12.836;2024-02-21T09:44:57;18.38;;;7.75;;
37299;SDS011;23184;51.902;12.836;2024-02-21T09:47:24;16.38;;;6.88;;
37299;SDS011;23184;51.902;12.836;2024-02-21T09:52:22;16.10;;;6.25;;
37299;SDS011;23184;51.902;12.836;2024-02-21T09:54:49;20.50;;;7.53;;
37299;SDS011;23184;51.902;12.836;2024-02-21T09:57:17;18.52;;;7.05;;
37299;SDS011;23184;51.902;12.836;2024-02-21T09:59:43;19.77;;;6.97;;
37299;SDS011;23184;51.902;12.836;2024-02-21T10:02:10;20.63;;;6.75;;
37299;SDS011;23184;51.902;12.836;2024-02-21T10:04:37;18.08;;;6.63;;
37299;SDS011;23184;51.902;12.836;2024-02-21T10:07:04;23.15;;;7.35;;
37299;SDS011;23184;51.902;12.836;2024-02-21T10:09:30;16.88;;;7.30;;
37299;SDS011;23184;51.902;12.836;2024-02-21T10:11:56;16.30;;;7.07;;
37299;SDS011;23184;51.902;12.836;2024-02-21T10:14:32;16.83;;;6.63;;
37299;SDS011;23184;51.902;12.836;2024-02-21T10:16:57;17.63;;;6.88;;
37299;SDS011;23184;51.902;12.836;2024-02-21T10:19:24;14.68;;;5.57;;
37299;SDS011;23184;51.902;12.836;2024-02-21T10:21:59;19.42;;;6.57;;
37299;SDS011;23184;51.902;12.836;2024-02-21T10:24:29;16.80;;;7.22;;
37299;SDS011;23184;51.902;12.836;2024-02-21T10:26:59;18.58;;;7.30;;
37299;SDS011;23184;51.902;12.836;2024-02-21T10:29:27;17.25;;;6.55;;
37299;SDS011;23184;51.902;12.836;2024-02-21T10:31:52;20.20;;;7.78;;
37299;SDS011;23184;51.902;12.836;2024-02-21T10:34:32;15.13;;;6.25;;
37299;SDS011;23184;51.902;12.836;2024-02-21T10:37:02;18.65;;;6.63;;
37299;SDS011;23184;51.902;12.836;2024-02-21T10:39:28;12.88;;;6.65;;
37299;SDS011;23184;51.902;12.836;2024-02-21T10:41:54;20.92;;;6.70;;
37299;SDS011;23184;51.902;12.836;2024-02-21T10:44:24;17.63;;;7.13;;
37299;SDS011;23184;51.902;12.836;2024-02-21T10:46:52;19.17;;;6.03;;
37299;SDS011;23184;51.902;12.836;2024-02-21T10:49:25;16.05;;;6.53;;
37299;SDS011;23184;51.902;12.836;2024-02-21T10:51:55;13.05;;;5.65;;
37299;SDS011;23184;51.902;12.836;2024-02-21T10:57:15;12.35;;;6.13;;
37299;SDS011;23184;51.902;12.836;2024-02-21T10:59:41;15.82;;;5.57;;
37299;SDS011;23184;51.902;12.836;2024-02-21T11:02:09;17.25;;;6.00;;
37299;SDS011;23184;51.902;12.836;2024-02-21T11:04:35;14.20;;;6.25;;
37299;SDS011;23184;51.902;12.836;2024-02-21T11:07:02;13.55;;;5.80;;
37299;SDS011;23184;51.902;12.836;2024-02-21T11:09:30;11.90;;;4.97;;
37299;SDS011;23184;51.902;12.836;2024-02-21T11:12:02;16.67;;;6.22;;
37299;SDS011;23184;51.902;12.836;2024-02-21T11:14:29;14.43;;;7.00;;
37299;SDS011;23184;51.902;12.836;2024-02-21T11:17:01;12.45;;;5.32;;
37299;SDS011;23184;51.902;12.836;2024-02-21T11:19:27;12.13;;;5.80;;
37299;SDS011;23184;51.902;12.836;2024-02-21T11:21:57;16.25;;;6.45;;
37299;SDS011;23184;51.902;12.836;2024-02-21T11:26:53;15.82;;;6.55;;
37299;SDS011;23184;51.902;12.836;2024-02-21T11:29:25;15.23;;;5.40;;
37299;SDS011;23184;51.902;12.836;2024-02-21T11:31:51;11.40;;;5.80;;
37299;SDS011;23184;51.902;12.836;2024-02-21T11:34:17;17.40;;;6.45;;
37299;SDS011;23184;51.902;12.836;2024-02-21T11:36:50;15.02;;;5.85;;
37299;SDS011;23184;51.902;12.836;2024-02-21T11:39:18;13.53;;;5.50;;
37299;SDS011;23184;51.902;12.836;2024-02-21T11:41:59;17.27;;;6.57;;
37299;SDS011;23184;51.902;12.836;2024-02-21T11:44:34;13.43;;;4.68;;
37299;SDS011;23184;51.902;12.836;2024-02-21T11:47:03;12.70;;;5.60;;
37299;SDS011;23184;51.902;12.836;2024-02-21T11:49:36;14.07;;;6.35;;
37299;SDS011;23184;51.902;12.836;2024-02-21T11:52:05;14.85;;;6.10;;
37299;SDS011;23184;51.902;12.836;2024-02-21T11:54:32;14.88;;;5.35;;
37299;SDS011;23184;51.902;12.836;2024-02-21T11:56:58;15.48;;;5.78;;
37299;SDS011;23184;51.902;12.836;2024-02-21T11:59:24;15.98;;;6.22;;
37299;SDS011;23184;51.902;12.836;2024-02-21T12:01:49;24.45;;;6.05;;
37299;SDS011;23184;51.902;12.836;2024-02-21T12:04:16;12.82;;;4.95;;
37299;SDS011;23184;51.902;12.836;2024-02-21T12:06:44;12.68;;;5.30;;
37299;SDS011;23184;51.902;12.836;2024-02-21T12:09:13;15.13;;;5.63;;
37299;SDS011;23184;51.902;12.836;2024-02-21T12:11:41;13.55;;;5.75;;
37299;SDS011;23184;51.902;12.836;2024-02-21T12:14:06;15.20;;;5.55;;
37299;SDS011;23184;51.902;12.836;2024-02-21T12:16:32;13.60;;;5.40;;
37299;SDS011;23184;51.902;12.836;2024-02-21T12:19:01;11.60;;;5.30;;
37299;SDS011;23184;51.902;12.836;2024-02-21T12:21:32;20.63;;;5.90;;
37299;SDS011;23184;51.902;12.836;2024-02-21T12:24:11;11.75;;;4.93;;
37299;SDS011;23184;51.902;12.836;2024-02-21T12:26:57;15.88;;;5.57;;
37299;SDS011;23184;51.902;12.836;2024-02-21T12:29:23;18.65;;;5.82;;
37299;SDS011;23184;51.902;12.836;2024-02-21T12:31:49;9.88;;;4.78;;
37299;SDS011;23184;51.902;12.836;2024-02-21T12:34:15;13.18;;;4.75;;
37299;SDS011;23184;51.902;12.836;2024-02-21T12:36:41;13.93;;;4.90;;
37299;SDS011;23184;51.902;12.836;2024-02-21T12:39:08;13.25;;;5.78;;
37299;SDS011;23184;51.902;12.836;2024-02-21T12:41:34;13.50;;;5.78;;
37299;SDS011;23184;51.902;12.836;2024-02-21T12:44:03;14.57;;;4.60;;
37299;SDS011;23184;51.902;12.836;2024-02-21T12:46:29;15.05;;;5.03;;
37299;SDS011;23184;51.902;12.836;2024-02-21T12:48:55;11.05;;;5.47;;
37299;SDS011;23184;51.902;12.836;2024-02-21T12:51:20;12.50;;;5.55;;
37299;SDS011;23184;51.902;12.836;2024-02-21T12:53:47;18.08;;;6.28;;
37299;SDS011;23184;51.902;12.836;2024-02-21T12:56:14;13.82;;;5.22;;
37299;SDS011;23184;51.902;12.836;2024-02-21T12:58:40;14.10;;;4.82;;
37299;SDS011;23184;51.902;12.836;2024-02-21T13:01:05;15.95;;;5.70;;
37299;SDS011;23184;51.902;12.836;2024-02-21T13:03:31;12.93;;;4.45;;
37299;SDS011;23184;51.902;12.836;2024-02-21T13:05:56;14.23;;;4.65;;
37299;SDS011;23184;51.902;12.836;2024-02-21T13:08:24;11.73;;;5.25;;
37299;SDS011;23184;51.902;12.836;2024-02-21T13:10:49;19.13;;;4.40;;
37299;SDS011;23184;51.902;12.836;2024-02-21T13:13:15;10.00;;;3.95;;
37299;SDS011;23184;51.902;12.836;2024-02-21T13:15:41;8.65;;;4.38;;
37299;SDS011;23184;51.902;12.836;2024-02-21T13:18:08;12.27;;;4.25;;
37299;SDS011;23184;51.902;12.836;2024-02-21T13:20:33;15.00;;;4.57;;
37299;SDS011;23184;51.902;12.836;2024-02-21T13:22:59;9.52;;;4.47;;
37299;SDS011;23184;51.902;12.836;2024-02-21T13:25:24;13.68;;;4.22;;
37299;SDS011;23184;51.902;12.836;2024-02-21T13:27:50;14.07;;;4.20;;
37299;SDS011;23184;51.902;12.836;2024-02-21T13:30:16;15.15;;;5.20;;
37299;SDS011;23184;51.902;12.836;2024-02-21T13:32:43;10.48;;;3.90;;
37299;SDS011;23184;51.902;12.836;2024-02-21T13:35:11;16.65;;;4.18;;
37299;SDS011;23184;51.902;12.836;2024-02-21T13:37:37;12.40;;;3.42;;
37299;SDS011;23184;51.902;12.836;2024-02-21T13:40:03;11.18;;;3.80;;
37299;SDS011;23184;51.902;12.836;2024-02-21T13:42:29;15.52;;;3.50;;
37299;SDS011;23184;51.902;12.836;2024-02-21T13:44:55;11.25;;;3.50;;
37299;SDS011;23184;51.902;12.836;2024-02-21T13:47:20;9.20;;;3.30;;
37299;SDS011;23184;51.902;12.836;2024-02-21T13:49:46;10.35;;;3.53;;
37299;SDS011;23184;51.902;12.836;2024-02-21T13:52:12;8.77;;;3.78;;
37299;SDS011;23184;51.902;12.836;2024-02-21T13:54:38;13.18;;;3.10;;
37299;SDS011;23184;51.902;12.836;2024-02-21T13:57:03;13.63;;;3.20;;
37299;SDS011;23184;51.902;12.836;2024-02-21T13:59:29;8.15;;;3.33;;
37299;SDS011;23184;51.902;12.836;2024-02-21T14:01:55;9.27;;;2.45;;
37299;SDS011;23184;51.902;12.836;2024-02-21T14:04:21;9.05;;;3.00;;
37299;SDS011;23184;51.902;12.836;2024-02-21T14:06:46;12.00;;;3.33;;
37299;SDS011;23184;51.902;12.836;2024-02-21T14:09:12;6.75;;;2.42;;
37299;SDS011;23184;51.902;12.836;2024-02-21T14:11:38;10.52;;;2.58;;
37299;SDS011;23184;51.902;12.836;2024-02-21T14:14:05;10.07;;;2.90;;
37299;SDS011;23184;51.902;12.836;2024-02-21T14:16:30;10.88;;;2.72;;
37299;SDS011;23184;51.902;12.836;2024-02-21T14:18:56;6.95;;;2.80;;
37299;SDS011;23184;51.902;12.836;2024-02-21T14:21:22;10.68;;;2.90;;
37299;SDS011;23184;51.902;12.836;2024-02-21T14:23:47;12.70;;;2.90;;